createdAt,value
2019-02-14T00:01:52.668Z,80.90
2019-02-14T00:04:21.007Z,80.80
2019-02-14T00:06:49.409Z,80.70
2019-02-14T00:09:17.803Z,80.90
2019-02-14T00:11:46.466Z,81.10
2019-02-14T00:14:15.347Z,81.60
2019-02-14T00:16:43.740Z,81.80
2019-02-14T00:19:12.131Z,82.10
2019-02-14T00:21:41.079Z,82.30
2019-02-14T00:24:09.476Z,82.90
2019-02-14T00:26:37.851Z,83.70
2019-02-14T00:29:06.974Z,83.40
2019-02-14T00:31:35.375Z,83.40
2019-02-14T00:34:03.747Z,84.40
2019-02-14T00:36:32.132Z,84.30
2019-02-14T00:39:00.817Z,84.20
2019-02-14T00:41:29.768Z,84.70
2019-02-14T00:43:59.563Z,84.80
2019-02-14T00:46:28.101Z,84.70
2019-02-14T00:48:57.137Z,84.80
2019-02-14T00:51:26.695Z,85.30
2019-02-14T00:53:55.124Z,85.50
2019-02-14T00:56:23.514Z,86.20
2019-02-14T00:58:51.909Z,86.30
2019-02-14T01:01:21.167Z,86.20
2019-02-14T01:03:50.864Z,85.90
2019-02-14T01:06:19.944Z,86.70
2019-02-14T01:08:48.616Z,88.10
2019-02-14T01:11:17.048Z,87.10
2019-02-14T01:13:45.408Z,87.10
2019-02-14T01:16:14.156Z,86.90
2019-02-14T01:18:42.624Z,86.80
2019-02-14T01:21:11.082Z,87.60
2019-02-14T01:23:39.478Z,87.50
2019-02-14T01:26:07.857Z,87.50
2019-02-14T01:28:36.211Z,87.70
2019-02-14T01:31:04.632Z,87.30
2019-02-14T01:33:33.004Z,87.20
2019-02-14T01:36:02.912Z,87.60
2019-02-14T01:38:32.324Z,87.60
2019-02-14T01:41:00.713Z,87.60
2019-02-14T01:43:29.108Z,87.70
2019-02-14T01:45:59.096Z,88.00
2019-02-14T01:48:27.475Z,87.80
2019-02-14T01:50:55.868Z,87.60
2019-02-14T01:53:24.902Z,88.10
2019-02-14T01:55:53.900Z,88.30
2019-02-14T01:58:22.270Z,89.00
2019-02-14T02:00:50.673Z,89.20
2019-02-14T02:03:19.376Z,89.80
2019-02-14T02:05:50.785Z,89.50
2019-02-14T02:08:19.376Z,89.20
2019-02-14T02:10:47.799Z,89.70
2019-02-14T02:13:16.188Z,89.50
2019-02-14T02:15:45.464Z,89.30
2019-02-14T02:18:14.865Z,89.00
2019-02-14T02:20:43.907Z,88.90
2019-02-14T02:23:12.362Z,89.70
2019-02-14T02:25:40.975Z,89.20
2019-02-14T02:28:10.035Z,89.30
2019-02-14T02:30:38.441Z,88.90
2019-02-14T02:33:06.820Z,88.80
2019-02-14T02:35:35.211Z,89.70
2019-02-14T02:38:08.055Z,89.70
2019-02-14T02:40:36.716Z,89.60
2019-02-14T02:43:05.757Z,89.90
2019-02-14T02:45:34.171Z,90.00
2019-02-14T02:48:03.213Z,90.20
2019-02-14T02:50:31.607Z,89.80
2019-02-14T02:53:01.535Z,89.60
2019-02-14T02:55:29.917Z,90.00
2019-02-14T02:57:58.320Z,89.80
2019-02-14T03:00:26.718Z,89.60
2019-02-14T03:02:55.089Z,89.40
2019-02-14T03:05:23.768Z,89.60
2019-02-14T03:07:53.172Z,89.80
2019-02-14T03:10:21.855Z,89.80
2019-02-14T03:12:50.543Z,90.00
2019-02-14T03:15:18.918Z,89.80
2019-02-14T03:17:47.963Z,90.00
2019-02-14T03:20:16.363Z,90.00
2019-02-14T03:22:44.741Z,90.40
2019-02-14T03:25:38.035Z,90.30
2019-02-14T03:28:06.421Z,90.40
2019-02-14T03:30:34.855Z,90.30
2019-02-14T03:33:03.925Z,90.10
2019-02-14T03:35:32.292Z,90.00
2019-02-14T03:38:01.231Z,90.00
2019-02-14T03:40:29.630Z,90.80
2019-02-14T03:43:02.522Z,91.30
2019-02-14T03:45:30.929Z,91.00
2019-02-14T03:47:59.571Z,91.30
2019-02-14T03:50:29.316Z,91.30
2019-02-14T03:52:57.692Z,91.30
2019-02-14T03:55:26.050Z,91.30
2019-02-14T03:57:55.022Z,91.20
2019-02-14T04:00:24.327Z,90.90
2019-02-14T04:02:52.695Z,91.20
2019-02-14T04:05:21.093Z,91.00
2019-02-14T04:07:52.162Z,90.80
2019-02-14T04:10:21.420Z,90.60
2019-02-14T04:12:49.815Z,90.80
2019-02-14T04:15:18.650Z,90.90
2019-02-14T04:17:47.048Z,90.70
2019-02-14T04:20:15.428Z,90.60
2019-02-14T04:22:44.626Z,90.50
2019-02-14T04:25:13.328Z,90.60
2019-02-14T04:27:43.356Z,90.70
2019-02-14T04:30:13.070Z,90.70
2019-02-14T04:32:41.456Z,91.10
2019-02-14T04:35:09.849Z,91.40
2019-02-14T04:37:38.226Z,91.30
2019-02-14T04:40:33.386Z,91.20
2019-02-14T04:43:19.022Z,91.10
2019-02-14T04:45:47.484Z,91.20
2019-02-14T04:48:16.588Z,91.10
2019-02-14T04:50:44.987Z,91.10
2019-02-14T04:53:13.367Z,91.00
2019-02-14T04:55:41.986Z,91.00
2019-02-14T04:58:10.951Z,91.20
2019-02-14T05:00:39.770Z,91.00
2019-02-14T05:03:08.145Z,91.30
2019-02-14T05:05:38.057Z,91.40
2019-02-14T05:08:07.097Z,91.50
2019-02-14T05:10:36.387Z,92.40
2019-02-14T05:13:04.778Z,91.40
2019-02-14T05:15:33.721Z,91.20
2019-02-14T05:18:02.667Z,91.40
2019-02-14T05:20:31.057Z,91.50
2019-02-14T05:22:59.437Z,91.20
2019-02-14T05:25:27.835Z,91.30
2019-02-14T05:27:56.218Z,91.00
2019-02-14T05:30:24.909Z,90.80
2019-02-14T05:32:53.283Z,90.70
2019-02-14T05:35:22.728Z,90.60
2019-02-14T05:37:51.103Z,90.90
2019-02-14T05:40:19.525Z,90.90
2019-02-14T05:42:47.942Z,91.00
2019-02-14T05:45:17.099Z,90.80
2019-02-14T05:47:45.803Z,91.00
2019-02-14T05:50:14.843Z,91.10
2019-02-14T05:52:43.910Z,91.70
2019-02-14T05:55:15.439Z,91.60
2019-02-14T05:57:45.379Z,91.30
2019-02-14T06:00:15.656Z,90.50
2019-02-14T06:02:44.060Z,90.30
2019-02-14T06:05:12.743Z,89.90
2019-02-14T06:07:41.130Z,89.70
2019-02-14T06:10:11.067Z,89.70
2019-02-14T06:12:39.440Z,89.60
2019-02-14T06:15:10.430Z,89.40
2019-02-14T06:17:38.865Z,89.50
2019-02-14T06:20:11.358Z,89.90
2019-02-14T06:22:40.383Z,90.20
2019-02-14T06:25:10.730Z,90.70
2019-02-14T06:27:39.110Z,90.90
2019-02-14T06:30:29.727Z,91.10
2019-02-14T06:32:58.091Z,90.90
2019-02-14T06:35:26.462Z,91.00
2019-02-14T06:37:54.859Z,91.70
2019-02-14T06:40:24.487Z,91.40
2019-02-14T06:42:52.871Z,91.40
2019-02-14T06:45:21.283Z,91.10
2019-02-14T06:47:50.326Z,91.00
2019-02-14T06:50:18.711Z,91.50
2019-02-14T06:52:49.500Z,91.30
2019-02-14T06:55:17.875Z,91.20
2019-02-14T06:57:46.644Z,91.30
2019-02-14T07:00:17.031Z,91.20
2019-02-14T07:02:45.487Z,91.10
2019-02-14T07:05:14.260Z,91.20
2019-02-14T07:07:42.626Z,91.20
2019-02-14T07:10:12.079Z,91.00
2019-02-14T07:12:41.203Z,90.90
2019-02-14T07:15:12.360Z,90.40
2019-02-14T07:17:40.778Z,90.10
2019-02-14T07:20:12.227Z,89.90
2019-02-14T07:22:41.159Z,89.90
2019-02-14T07:25:11.375Z,89.90
2019-02-14T07:27:40.421Z,89.60
2019-02-14T07:30:17.566Z,89.20
2019-02-14T07:32:47.114Z,89.00
2019-02-14T07:35:15.691Z,89.30
2019-02-14T07:37:44.162Z,88.90
2019-02-14T07:40:14.258Z,88.30
2019-02-14T07:42:43.335Z,88.30
2019-02-14T07:45:13.930Z,87.50
2019-02-14T07:47:42.302Z,87.10
2019-02-14T07:55:58.644Z,85.60
2019-02-14T07:58:28.922Z,85.40
2019-02-14T08:01:02.528Z,84.80
2019-02-14T08:06:25.978Z,83.10
2019-02-14T08:08:56.053Z,80.90
2019-02-14T08:11:26.883Z,78.60
2019-02-14T08:14:01.559Z,74.80
2019-02-14T08:16:38.583Z,72.70
2019-02-14T08:19:09.386Z,70.70
2019-02-14T08:24:37.019Z,61.00
2019-02-14T08:27:05.401Z,55.90
2019-02-14T08:29:33.760Z,53.50
2019-02-14T08:32:02.686Z,51.30
2019-02-14T08:34:31.080Z,48.40
2019-02-14T08:36:59.430Z,48.90
2019-02-14T08:39:29.462Z,51.40
2019-02-14T08:41:57.747Z,53.70
2019-02-14T08:44:26.121Z,54.00
2019-02-14T08:46:55.313Z,56.70
2019-02-14T08:49:24.141Z,57.70
2019-02-14T08:51:52.499Z,57.60
2019-02-14T08:54:21.582Z,56.60
2019-02-14T08:56:49.934Z,58.20
2019-02-14T08:59:18.289Z,56.30
2019-02-14T09:01:46.688Z,56.80
2019-02-14T09:04:15.061Z,57.30
2019-02-14T09:06:43.411Z,58.60
2019-02-14T09:09:12.575Z,57.50
2019-02-14T09:11:41.510Z,58.00
2019-02-14T09:14:09.897Z,59.10
2019-02-14T09:16:38.254Z,60.80
2019-02-14T09:19:07.296Z,61.00
2019-02-14T09:21:35.701Z,60.30
2019-02-14T09:24:04.069Z,58.40
2019-02-14T09:26:33.012Z,56.40
2019-02-14T09:29:01.370Z,53.50
2019-02-14T09:31:33.231Z,52.60
2019-02-14T09:34:02.389Z,49.00
2019-02-14T09:36:30.751Z,46.20
2019-02-14T09:38:59.152Z,46.20
2019-02-14T09:41:27.857Z,47.70
2019-02-14T09:43:56.241Z,48.20
2019-02-14T09:46:24.621Z,45.80
2019-02-14T09:48:52.999Z,43.50
2019-02-14T09:51:21.396Z,44.80
2019-02-14T09:53:49.765Z,40.10
2019-02-14T09:56:18.126Z,45.00
2019-02-14T09:58:46.533Z,41.50
2019-02-14T10:01:14.890Z,39.00
2019-02-14T10:03:43.348Z,37.20
2019-02-14T10:06:11.809Z,38.00
2019-02-14T10:08:40.937Z,41.10
2019-02-14T10:11:09.725Z,44.60
2019-02-14T10:13:38.105Z,47.20
2019-02-14T10:16:06.485Z,50.00
2019-02-14T10:18:35.157Z,49.20
2019-02-14T10:21:03.546Z,51.10
2019-02-14T10:23:31.950Z,52.50
2019-02-14T10:26:00.347Z,52.30
2019-02-14T10:28:29.487Z,52.80
2019-02-14T10:30:58.172Z,53.20
2019-02-14T10:33:26.562Z,52.40
2019-02-14T10:35:54.922Z,52.10
2019-02-14T10:38:23.324Z,53.30
2019-02-14T10:40:51.987Z,53.60
2019-02-14T10:43:20.383Z,54.80
2019-02-14T10:45:49.975Z,55.60
2019-02-14T10:48:19.074Z,55.80
2019-02-14T10:50:47.475Z,56.70
2019-02-14T10:53:15.876Z,57.10
2019-02-14T10:55:44.267Z,57.40
2019-02-14T10:58:12.631Z,56.70
2019-02-14T11:00:41.076Z,57.50
2019-02-14T11:03:10.135Z,55.10
2019-02-14T11:05:38.506Z,55.10
2019-02-14T11:08:06.911Z,55.50
2019-02-14T11:10:35.360Z,54.00
2019-02-14T11:13:03.740Z,55.40
2019-02-14T11:15:32.967Z,54.10
2019-02-14T11:18:01.900Z,55.30
2019-02-14T11:20:31.264Z,57.30
2019-02-14T11:22:59.944Z,55.50
2019-02-14T11:25:31.906Z,55.20
2019-02-14T11:28:00.287Z,55.80
2019-02-14T11:30:28.919Z,54.10
2019-02-14T11:32:57.278Z,53.80
2019-02-14T11:35:25.679Z,53.30
2019-02-14T11:37:54.757Z,53.80
2019-02-14T11:40:43.568Z,53.80
2019-02-14T11:43:11.970Z,53.30
2019-02-14T11:45:40.437Z,50.60
2019-02-14T11:48:08.909Z,50.70
2019-02-14T11:50:37.294Z,51.50
2019-02-14T11:53:13.960Z,51.10
2019-02-14T11:55:35.750Z,51.20
2019-02-14T11:58:04.582Z,53.10
2019-02-14T12:00:32.994Z,53.70
2019-02-14T12:03:01.380Z,52.20
2019-02-14T12:05:29.797Z,53.10
2019-02-14T12:07:58.169Z,51.60
2019-02-14T12:10:26.527Z,51.60
2019-02-14T12:12:54.931Z,51.50
2019-02-14T12:15:23.663Z,51.10
2019-02-14T12:17:52.416Z,50.20
2019-02-14T12:20:20.773Z,50.00
2019-02-14T12:22:49.155Z,51.50
2019-02-14T12:25:29.508Z,49.90
2019-02-14T12:27:57.817Z,49.90
2019-02-14T12:30:26.591Z,50.30
2019-02-14T12:32:55.566Z,49.30
2019-02-14T12:35:24.268Z,51.50
2019-02-14T12:37:52.759Z,48.60
2019-02-14T12:40:21.235Z,51.00
2019-02-14T12:42:50.269Z,48.70
2019-02-14T12:45:42.655Z,48.10
2019-02-14T12:48:11.010Z,47.20
2019-02-14T12:50:39.389Z,47.40
2019-02-14T12:53:07.809Z,48.60
2019-02-14T12:55:36.623Z,46.90
2019-02-14T12:58:05.025Z,46.10
2019-02-14T13:00:34.436Z,45.50
2019-02-14T13:03:02.796Z,45.80
2019-02-14T13:08:37.804Z,48.70
2019-02-14T13:11:06.213Z,45.20
2019-02-14T13:13:35.252Z,45.10
2019-02-14T13:16:04.581Z,47.10
2019-02-14T13:18:33.058Z,45.60
2019-02-14T13:21:01.433Z,44.30
2019-02-14T13:23:29.827Z,45.00
2019-02-14T13:25:58.269Z,46.70
2019-02-14T13:28:26.667Z,43.60
2019-02-14T13:30:55.074Z,44.10
2019-02-14T13:33:23.459Z,45.70
2019-02-14T13:35:52.568Z,47.40
2019-02-14T13:38:20.980Z,45.20
2019-02-14T13:40:49.353Z,45.70
2019-02-14T13:43:18.386Z,45.40
2019-02-14T13:45:47.763Z,43.50
2019-02-14T13:48:16.142Z,44.40
2019-02-14T13:50:45.375Z,44.40
2019-02-14T13:53:13.795Z,44.20
2019-02-14T13:55:42.158Z,45.20
2019-02-14T13:58:10.528Z,46.00
2019-02-14T14:00:38.939Z,46.30
2019-02-14T14:03:07.308Z,47.30
2019-02-14T14:05:35.752Z,45.30
2019-02-14T14:08:04.088Z,45.80
2019-02-14T14:10:33.587Z,44.00
2019-02-14T14:13:03.248Z,44.10
2019-02-14T14:15:31.654Z,44.90
2019-02-14T14:18:00.801Z,45.00
2019-02-14T14:20:29.221Z,44.80
2019-02-14T14:22:58.372Z,45.60
2019-02-14T14:25:27.425Z,44.90
2019-02-14T14:27:55.856Z,46.70
2019-02-14T14:30:24.233Z,45.80
2019-02-14T14:32:52.682Z,44.20
2019-02-14T14:35:21.090Z,44.40
2019-02-14T14:37:49.839Z,43.70
2019-02-14T14:40:20.455Z,43.40
2019-02-14T14:42:51.621Z,43.90
2019-02-14T14:45:41.188Z,43.80
2019-02-14T14:48:19.208Z,43.70
2019-02-14T14:50:41.277Z,44.60
2019-02-14T14:53:09.691Z,44.30
2019-02-14T14:55:38.138Z,43.50
2019-02-14T14:58:07.174Z,44.40
2019-02-14T15:00:35.672Z,45.90
2019-02-14T15:03:04.007Z,45.90
2019-02-14T15:05:32.431Z,45.20
2019-02-14T15:08:00.838Z,45.50
2019-02-14T15:10:29.140Z,45.40
2019-02-14T15:12:57.528Z,45.60
2019-02-14T15:15:25.898Z,45.20
2019-02-14T15:17:54.276Z,45.60
2019-02-14T15:20:24.302Z,46.80
2019-02-14T15:22:52.681Z,46.60
2019-02-14T15:25:21.071Z,46.10
2019-02-14T15:27:50.269Z,46.70
2019-02-14T15:30:19.065Z,46.90
2019-02-14T15:32:48.965Z,46.50
2019-02-14T15:35:17.347Z,46.90
2019-02-14T15:37:47.142Z,47.50
2019-02-14T15:40:16.183Z,46.80
2019-02-14T15:42:44.542Z,47.80
2019-02-14T15:45:12.923Z,48.70
2019-02-14T15:47:41.322Z,48.20
2019-02-14T15:50:09.751Z,48.20
2019-02-14T15:52:38.177Z,48.40
2019-02-14T15:55:07.582Z,48.50
2019-02-14T15:57:35.961Z,48.40
2019-02-14T16:00:10.253Z,47.80
2019-02-14T16:02:36.870Z,48.20
2019-02-14T16:05:06.401Z,49.50
2019-02-14T16:07:36.839Z,49.00
2019-02-14T16:10:17.622Z,50.00
2019-02-14T16:12:41.071Z,50.50
2019-02-14T16:15:09.730Z,50.90
2019-02-14T16:17:38.183Z,51.70
2019-02-14T16:20:10.149Z,52.90
2019-02-14T16:22:40.232Z,53.40
2019-02-14T16:28:11.651Z,55.30
2019-02-14T16:30:40.961Z,55.90
2019-02-14T16:33:09.391Z,56.30
2019-02-14T16:35:37.793Z,56.80
2019-02-14T16:38:06.661Z,56.90
2019-02-14T16:40:38.633Z,56.80
2019-02-14T16:43:05.148Z,57.00
2019-02-14T16:45:33.504Z,57.00
2019-02-14T16:48:01.882Z,57.80
2019-02-14T16:50:30.672Z,58.20
2019-02-14T16:52:59.021Z,58.90
2019-02-14T16:55:27.806Z,60.60
2019-02-14T16:57:56.362Z,61.10
2019-02-14T17:00:24.824Z,61.70
2019-02-14T17:02:53.534Z,62.20
2019-02-14T17:05:21.909Z,62.70
2019-02-14T17:07:50.280Z,63.20
2019-02-14T17:10:18.678Z,63.60
2019-02-14T17:12:47.341Z,65.30
2019-02-14T17:15:15.712Z,65.30
2019-02-14T17:17:44.163Z,66.00
2019-02-14T17:20:12.532Z,66.70
2019-02-14T17:22:40.936Z,66.60
2019-02-14T17:25:09.599Z,67.70
2019-02-14T17:27:38.656Z,67.80
2019-02-14T17:30:09.911Z,68.40
2019-02-14T17:32:38.272Z,69.60
2019-02-14T17:35:07.684Z,69.70
2019-02-14T17:37:36.066Z,69.60
2019-02-14T17:40:07.614Z,70.20
2019-02-14T17:42:35.967Z,71.50
2019-02-14T17:45:05.631Z,72.60
2019-02-14T17:47:33.997Z,71.60
2019-02-14T17:50:02.375Z,72.50
2019-02-14T17:52:30.778Z,72.80
2019-02-14T17:54:59.152Z,72.90
2019-02-14T17:57:27.548Z,73.70
2019-02-14T17:59:56.678Z,74.40
2019-02-14T18:02:25.734Z,75.00
2019-02-14T18:05:15.167Z,74.80
2019-02-14T18:07:44.433Z,75.50
2019-02-14T18:10:13.650Z,76.40
2019-02-14T18:12:42.579Z,76.20
2019-02-14T18:15:34.679Z,77.40
2019-02-14T18:18:03.711Z,77.20
2019-02-14T18:20:32.082Z,77.80
2019-02-14T18:23:01.012Z,79.20
2019-02-14T18:25:29.376Z,78.90
2019-02-14T18:27:57.802Z,79.20
2019-02-14T18:30:26.875Z,80.10
2019-02-14T18:32:56.874Z,79.80
2019-02-14T18:35:25.579Z,80.30
2019-02-14T18:37:54.207Z,79.30
2019-02-14T18:40:28.668Z,79.80
2019-02-14T18:42:57.567Z,79.70
2019-02-14T18:45:26.739Z,80.50
2019-02-14T18:47:55.124Z,80.40
2019-02-14T18:50:23.771Z,80.10
2019-02-14T18:52:52.547Z,80.50
2019-02-14T18:55:21.790Z,80.00
2019-02-14T18:57:50.143Z,79.80
2019-02-14T19:00:19.747Z,80.00
2019-02-14T19:02:48.133Z,81.60
2019-02-14T19:05:16.525Z,81.40
2019-02-14T19:07:45.041Z,81.20
2019-02-14T19:10:15.567Z,81.60
2019-02-14T19:13:04.979Z,81.70
2019-02-14T19:15:33.389Z,82.20
2019-02-14T19:18:02.323Z,82.40
2019-02-14T19:20:30.774Z,82.10
2019-02-14T19:22:59.137Z,81.60
2019-02-14T19:25:29.642Z,82.30
2019-02-14T19:27:57.554Z,82.60
2019-02-14T19:30:27.364Z,82.20
2019-02-14T19:32:55.727Z,82.80
2019-02-14T19:35:24.230Z,83.00
2019-02-14T19:37:52.606Z,82.50
2019-02-14T19:40:21.104Z,82.40
2019-02-14T19:42:49.738Z,83.00
2019-02-14T19:45:18.624Z,83.20
2019-02-14T19:47:47.009Z,84.00
2019-02-14T19:50:15.480Z,83.40
2019-02-14T19:52:43.828Z,83.90
2019-02-14T19:55:12.224Z,83.70
2019-02-14T19:57:40.599Z,83.40
2019-02-14T20:00:11.807Z,83.30
2019-02-14T20:02:40.479Z,83.40
2019-02-14T20:05:10.028Z,83.60
2019-02-14T20:07:38.489Z,84.00
2019-02-14T20:10:09.661Z,83.70
2019-02-14T20:12:38.057Z,84.60
2019-02-14T20:15:18.968Z,84.10
2019-02-14T20:17:47.381Z,84.00
2019-02-14T20:20:15.734Z,84.80
2019-02-14T20:22:44.171Z,84.70
2019-02-14T20:25:18.949Z,85.20
2019-02-14T20:27:49.990Z,84.20
2019-02-14T20:30:18.264Z,84.60
2019-02-14T20:32:46.660Z,84.40
2019-02-14T20:35:15.100Z,84.90
2019-02-14T20:37:44.148Z,85.70
2019-02-14T20:40:12.867Z,85.80
2019-02-14T20:42:41.242Z,85.60
2019-02-14T20:45:14.111Z,86.40
2019-02-14T20:47:42.460Z,85.70
2019-02-14T20:50:12.487Z,85.90
2019-02-14T20:52:41.426Z,86.20
2019-02-14T20:55:15.913Z,86.00
2019-02-14T20:57:45.131Z,86.10
2019-02-14T21:00:27.153Z,86.00
2019-02-14T21:02:55.612Z,85.50
2019-02-14T21:05:24.061Z,86.70
2019-02-14T21:07:53.264Z,86.00
2019-02-14T21:10:22.007Z,85.80
2019-02-14T21:12:50.399Z,85.80
2019-02-14T21:15:19.075Z,86.00
2019-02-14T21:17:47.480Z,86.40
2019-02-14T21:20:19.422Z,86.70
2019-02-14T21:22:47.871Z,86.50
2019-02-14T21:25:22.091Z,86.70
2019-02-14T21:27:47.169Z,86.50
2019-02-14T21:30:20.471Z,86.60
2019-02-14T21:32:49.657Z,86.50
2019-02-14T21:35:18.022Z,87.00
2019-02-14T21:37:47.125Z,87.10
2019-02-14T21:40:16.724Z,86.60
2019-02-14T21:42:45.123Z,87.10
2019-02-14T21:45:15.535Z,86.50
2019-02-14T21:47:43.933Z,86.40
2019-02-14T21:50:13.437Z,86.30
2019-02-14T21:52:41.886Z,86.60
2019-02-14T21:55:11.692Z,86.90
2019-02-14T21:57:40.181Z,87.20
2019-02-14T22:00:15.343Z,87.10
2019-02-14T22:02:43.864Z,87.40
2019-02-14T22:05:12.323Z,87.20
2019-02-14T22:07:40.739Z,87.10
2019-02-14T22:10:11.426Z,87.20
2019-02-14T22:12:42.213Z,87.70
2019-02-14T22:15:15.983Z,87.20
2019-02-14T22:17:44.462Z,87.10
2019-02-14T22:20:13.414Z,87.30
2019-02-14T22:22:42.379Z,87.40
2019-02-14T22:25:11.290Z,87.50
2019-02-14T22:27:40.316Z,87.90
2019-02-14T22:30:15.466Z,87.80
2019-02-14T22:32:51.068Z,87.70
2019-02-14T22:35:21.387Z,87.80
2019-02-14T22:37:49.755Z,88.00
2019-02-14T22:40:18.931Z,88.00
2019-02-14T22:42:48.263Z,88.10
2019-02-14T22:45:16.632Z,88.00
2019-02-14T22:47:45.002Z,87.80
2019-02-14T22:50:13.760Z,87.80
2019-02-14T22:52:42.386Z,87.90
2019-02-14T22:55:15.221Z,87.80
2019-02-14T22:57:43.623Z,87.80
2019-02-14T23:00:28.615Z,88.10
2019-02-14T23:02:57.079Z,88.10
2019-02-14T23:05:25.781Z,88.40
2019-02-14T23:07:54.187Z,88.20
2019-02-14T23:10:23.667Z,88.40
2019-02-14T23:12:55.760Z,88.30
2019-02-14T23:15:22.111Z,88.50
2019-02-14T23:17:50.467Z,88.40
2019-02-14T23:20:19.222Z,88.60
2019-02-14T23:22:47.909Z,88.50
2019-02-14T23:25:17.101Z,88.40
2019-02-14T23:27:46.171Z,88.40
2019-02-14T23:30:14.563Z,88.30
2019-02-14T23:32:43.056Z,88.40
2019-02-14T23:35:11.415Z,88.40
2019-02-14T23:37:40.735Z,88.40
2019-02-14T23:40:09.143Z,88.40
2019-02-14T23:42:37.512Z,88.20
2019-02-14T23:45:13.502Z,88.60
2019-02-14T23:47:42.231Z,88.70
2019-02-14T23:50:17.833Z,89.00
2019-02-14T23:52:46.195Z,89.30
2019-02-14T23:55:15.237Z,89.30
2019-02-14T23:57:43.641Z,89.60
